This is the latest recevied weather packets stored in our database for station/object W4BOD. If no packets are shown the sender has not sent any weather packets the latest 10 day(s).
| Time | Temp. | Humidity | Pressure | Rain* | Wind** | Luminosity | Snow |
|---|---|---|---|---|---|---|---|
| 1788018103 | 30° C | 72% | 1020.8 hPa | 0 mm | - | 735 W/m² | - |
| 1788017799 | 30.56° C | 67% | 1020.9 hPa | 0 mm | - | 722 W/m² | - |
| 1788017496 | 30° C | 69% | 1020.7 hPa | 0 mm | - | 711 W/m² | - |
| 1788017193 | 29.44° C | 70% | 1020.7 hPa | 0 mm | - | 700 W/m² | - |
| 1788016892 | 28.89° C | 72% | 1020.5 hPa | 0 mm | - | 691 W/m² | - |
| 1788016590 | 28.89° C | 73% | 1020.5 hPa | 0 mm | - | 678 W/m² | - |
| 1788016280 | 27.78° C | 77% | 1020.6 hPa | 0 mm | - | 664 W/m² | - |
| 1788015979 | 28.33° C | 74% | 1020.9 hPa | 0 mm | - | 650 W/m² | - |
| 1788015674 | 27.78° C | 75% | 1020.8 hPa | 0 mm | - | 637 W/m² | - |
| 1788015373 | 28.33° C | 76% | 1020.7 hPa | 0 mm | - | 624 W/m² | - |
| 1788015069 | 27.78° C | 74% | 1020.7 hPa | 0 mm | - | 607 W/m² | - |
| 1788014767 | 27.22° C | 76% | 1020.9 hPa | 0 mm | - | 590 W/m² | - |
| 1788014463 | 27.22° C | 77% | 1020.9 hPa | 0 mm | - | 579 W/m² | - |
| 1788014157 | 26.67° C | 78% | 1021 hPa | 0 mm | - | 559 W/m² | - |
| 1788013857 | 26.11° C | 80% | 1020.9 hPa | 0 mm | - | 294 W/m² | - |
| 1788013556 | 26.11° C | 80% | 1020.8 hPa | 0 mm | - | 107 W/m² | - |
| 1788013250 | 25.56° C | 80% | 1020.8 hPa | 0 mm | - | 216 W/m² | - |
| 1788012944 | 25.56° C | 80% | 1020.9 hPa | 0 mm | - | 301 W/m² | - |
| 1788012644 | 25.56° C | 82% | 1020.7 hPa | 0 mm | - | 244 W/m² | - |
| 1788012339 | 25.56° C | 82% | 1020.6 hPa | 0 mm | - | 113 W/m² | - |
| 1788012035 | 25° C | 82% | 1020.7 hPa | 0 mm | - | 100 W/m² | - |
| 1788011732 | 25° C | 83% | 1020.9 hPa | 0 mm | - | 152 W/m² | - |
| 1788011428 | 24.44° C | 83% | 1020.9 hPa | 0 mm | - | 266 W/m² | - |
| 1788011127 | 24.44° C | 84% | 1020.9 hPa | 0 mm | - | 152 W/m² | - |
| 1788010822 | 24.44° C | 84% | 1020.9 hPa | 0 mm | - | 145 W/m² | - |
* Rain latest hour (hover to see other rain measurements)
** Current wind speed in m/s (hover to see current wind gust speed)